CheckWX is a tool to help pilots better visualize weather data.  It is not intended as a substitute for an official pre-flight weather briefing.

08:33:35 UTC

KOMH METAR
Orange County Airport
Orange, Virginia, USA
Current

24 mins ago

KOMH 220810Z AUTO 00000KT 5SM -RA BKN090 BKN110 05/05 A3024 RMK AO2
Observed
Feb-22 @ 08:10 UTC
Visibility
5 SM
Flight Rules
MVFR
Conditions
Light Rain
Cloud Levels
  • Broken at 9,000' AGL
  • Broken at 11,000' AGL
Temperature
C / 41°F
Dewpoint
C / 41°F
Humidity
100%
Altimeter
30.24" Hg
Pressure
1024.02 hPa
Previous

39 mins ago

KOMH 220755Z AUTO 00000KT 10SM SCT070 BKN090 OVC110 06/06 A3023 RMK AO2 P0001
Observed
Feb-22 @ 07:55 UTC
Visibility
10 SM
Flight Rules
VFR
Cloud Levels
  • Scattered at 7,000' AGL
  • Broken at 9,000' AGL
  • Overcast at 11,000' AGL
Temperature
C / 43°F
Dewpoint
C / 43°F
Humidity
100%
Altimeter
30.23" Hg
Pressure
1023.72 hPa
Current Rain
0.01"
Previous

59 mins ago

KOMH 220735Z AUTO 00000KT 10SM OVC100 06/05 A3023 RMK AO2 P0001
Observed
Feb-22 @ 07:35 UTC
Visibility
10 SM
Flight Rules
VFR
Cloud Levels
  • Overcast at 10,000' AGL
Temperature
C / 43°F
Dewpoint
C / 41°F
Humidity
93%
Altimeter
30.23" Hg
Pressure
1023.72 hPa
Current Rain
0.01"